sensor_id;sensor_type;location;lat;lon;timestamp;P1;durP1;ratioP1;P2;durP2;ratioP2
8094;SDS011;4090;49.270;8.696;2022-09-02T00:00:09;3.40;;;3.10;;
8094;SDS011;4090;49.270;8.696;2022-09-02T00:02:52;3.72;;;3.40;;
8094;SDS011;4090;49.270;8.696;2022-09-02T00:05:34;4.70;;;3.42;;
8094;SDS011;4090;49.270;8.696;2022-09-02T00:08:16;3.90;;;3.30;;
8094;SDS011;4090;49.270;8.696;2022-09-02T00:10:59;4.32;;;3.22;;
8094;SDS011;4090;49.270;8.696;2022-09-02T00:13:42;4.75;;;3.38;;
8094;SDS011;4090;49.270;8.696;2022-09-02T00:16:25;4.88;;;3.22;;
8094;SDS011;4090;49.270;8.696;2022-09-02T00:19:07;4.55;;;3.50;;
8094;SDS011;4090;49.270;8.696;2022-09-02T00:21:50;4.88;;;3.60;;
8094;SDS011;4090;49.270;8.696;2022-09-02T00:24:33;4.95;;;3.53;;
8094;SDS011;4090;49.270;8.696;2022-09-02T00:27:16;5.80;;;3.50;;
8094;SDS011;4090;49.270;8.696;2022-09-02T00:29:58;4.22;;;3.63;;
8094;SDS011;4090;49.270;8.696;2022-09-02T00:32:40;4.53;;;3.28;;
8094;SDS011;4090;49.270;8.696;2022-09-02T00:35:22;4.53;;;2.92;;
8094;SDS011;4090;49.270;8.696;2022-09-02T00:38:04;5.15;;;3.00;;
8094;SDS011;4090;49.270;8.696;2022-09-02T00:40:48;4.65;;;3.53;;
8094;SDS011;4090;49.270;8.696;2022-09-02T00:43:40;5.07;;;3.33;;
8094;SDS011;4090;49.270;8.696;2022-09-02T00:46:25;3.83;;;3.00;;
8094;SDS011;4090;49.270;8.696;2022-09-02T00:49:10;3.35;;;3.05;;
8094;SDS011;4090;49.270;8.696;2022-09-02T00:51:56;5.10;;;3.47;;
8094;SDS011;4090;49.270;8.696;2022-09-02T00:54:43;4.53;;;3.40;;
8094;SDS011;4090;49.270;8.696;2022-09-02T00:57:29;7.35;;;3.75;;
8094;SDS011;4090;49.270;8.696;2022-09-02T01:00:18;4.60;;;3.45;;
8094;SDS011;4090;49.270;8.696;2022-09-02T01:03:04;4.78;;;3.60;;
8094;SDS011;4090;49.270;8.696;2022-09-02T01:05:49;5.95;;;3.58;;
8094;SDS011;4090;49.270;8.696;2022-09-02T01:08:33;5.65;;;3.70;;
8094;SDS011;4090;49.270;8.696;2022-09-02T01:11:17;4.07;;;3.58;;
8094;SDS011;4090;49.270;8.696;2022-09-02T01:14:01;4.78;;;4.00;;
8094;SDS011;4090;49.270;8.696;2022-09-02T01:16:46;5.53;;;3.30;;
8094;SDS011;4090;49.270;8.696;2022-09-02T01:19:35;4.63;;;3.40;;
8094;SDS011;4090;49.270;8.696;2022-09-02T01:22:23;4.47;;;3.45;;
8094;SDS011;4090;49.270;8.696;2022-09-02T01:25:07;3.50;;;3.20;;
8094;SDS011;4090;49.270;8.696;2022-09-02T01:27:51;3.70;;;3.30;;
8094;SDS011;4090;49.270;8.696;2022-09-02T01:30:35;4.30;;;3.78;;
8094;SDS011;4090;49.270;8.696;2022-09-02T01:33:19;3.92;;;3.28;;
8094;SDS011;4090;49.270;8.696;2022-09-02T01:36:03;4.32;;;3.20;;
8094;SDS011;4090;49.270;8.696;2022-09-02T01:38:46;5.10;;;3.53;;
8094;SDS011;4090;49.270;8.696;2022-09-02T01:41:28;4.43;;;3.20;;
8094;SDS011;4090;49.270;8.696;2022-09-02T01:44:11;3.53;;;3.22;;
8094;SDS011;4090;49.270;8.696;2022-09-02T01:46:53;4.60;;;3.22;;
8094;SDS011;4090;49.270;8.696;2022-09-02T01:49:36;5.70;;;3.33;;
8094;SDS011;4090;49.270;8.696;2022-09-02T01:52:19;5.10;;;3.13;;
8094;SDS011;4090;49.270;8.696;2022-09-02T01:55:05;4.30;;;3.45;;
8094;SDS011;4090;49.270;8.696;2022-09-02T01:57:48;4.60;;;3.30;;
8094;SDS011;4090;49.270;8.696;2022-09-02T02:00:30;3.35;;;3.05;;
8094;SDS011;4090;49.270;8.696;2022-09-02T02:03:12;4.10;;;3.03;;
8094;SDS011;4090;49.270;8.696;2022-09-02T02:05:54;3.63;;;3.13;;
8094;SDS011;4090;49.270;8.696;2022-09-02T02:08:36;3.80;;;3.15;;
8094;SDS011;4090;49.270;8.696;2022-09-02T02:11:21;3.78;;;3.33;;
8094;SDS011;4090;49.270;8.696;2022-09-02T02:14:09;3.92;;;3.10;;
8094;SDS011;4090;49.270;8.696;2022-09-02T02:16:58;5.18;;;3.08;;
8094;SDS011;4090;49.270;8.696;2022-09-02T02:19:40;3.60;;;3.10;;
8094;SDS011;4090;49.270;8.696;2022-09-02T02:22:22;3.63;;;3.20;;
8094;SDS011;4090;49.270;8.696;2022-09-02T02:25:06;10.00;;;3.63;;
8094;SDS011;4090;49.270;8.696;2022-09-02T02:27:49;3.33;;;3.00;;
8094;SDS011;4090;49.270;8.696;2022-09-02T02:30:32;4.43;;;3.38;;
8094;SDS011;4090;49.270;8.696;2022-09-02T02:33:15;3.53;;;3.22;;
8094;SDS011;4090;49.270;8.696;2022-09-02T02:35:57;4.43;;;3.10;;
8094;SDS011;4090;49.270;8.696;2022-09-02T02:38:39;3.97;;;3.05;;
8094;SDS011;4090;49.270;8.696;2022-09-02T02:41:22;4.10;;;3.30;;
8094;SDS011;4090;49.270;8.696;2022-09-02T02:44:06;2.97;;;2.75;;
8094;SDS011;4090;49.270;8.696;2022-09-02T02:46:50;3.50;;;2.97;;
8094;SDS011;4090;49.270;8.696;2022-09-02T02:49:35;3.83;;;3.20;;
8094;SDS011;4090;49.270;8.696;2022-09-02T02:52:17;4.43;;;3.47;;
8094;SDS011;4090;49.270;8.696;2022-09-02T02:55:00;4.70;;;3.28;;
8094;SDS011;4090;49.270;8.696;2022-09-02T02:57:42;4.72;;;3.35;;
8094;SDS011;4090;49.270;8.696;2022-09-02T03:00:27;3.70;;;3.25;;
8094;SDS011;4090;49.270;8.696;2022-09-02T03:03:10;3.17;;;2.88;;
8094;SDS011;4090;49.270;8.696;2022-09-02T03:05:52;4.47;;;2.90;;
8094;SDS011;4090;49.270;8.696;2022-09-02T03:08:34;5.65;;;3.17;;
8094;SDS011;4090;49.270;8.696;2022-09-02T03:11:17;4.95;;;3.03;;
8094;SDS011;4090;49.270;8.696;2022-09-02T03:14:01;3.50;;;3.20;;
8094;SDS011;4090;49.270;8.696;2022-09-02T03:16:47;3.22;;;2.92;;
8094;SDS011;4090;49.270;8.696;2022-09-02T03:19:30;3.47;;;3.10;;
8094;SDS011;4090;49.270;8.696;2022-09-02T03:22:13;3.78;;;2.80;;
8094;SDS011;4090;49.270;8.696;2022-09-02T03:24:55;3.42;;;3.13;;
8094;SDS011;4090;49.270;8.696;2022-09-02T03:27:37;3.80;;;3.03;;
8094;SDS011;4090;49.270;8.696;2022-09-02T03:30:21;3.88;;;3.47;;
8094;SDS011;4090;49.270;8.696;2022-09-02T03:33:06;4.68;;;3.00;;
8094;SDS011;4090;49.270;8.696;2022-09-02T03:35:48;3.25;;;2.95;;
8094;SDS011;4090;49.270;8.696;2022-09-02T03:38:30;3.50;;;3.00;;
8094;SDS011;4090;49.270;8.696;2022-09-02T03:41:12;3.58;;;3.15;;
8094;SDS011;4090;49.270;8.696;2022-09-02T03:43:54;4.80;;;3.00;;
8094;SDS011;4090;49.270;8.696;2022-09-02T03:46:36;4.35;;;2.80;;
8094;SDS011;4090;49.270;8.696;2022-09-02T03:49:20;4.28;;;2.95;;
8094;SDS011;4090;49.270;8.696;2022-09-02T03:52:02;4.15;;;3.17;;
8094;SDS011;4090;49.270;8.696;2022-09-02T03:54:44;3.30;;;2.92;;
8094;SDS011;4090;49.270;8.696;2022-09-02T03:57:26;3.05;;;2.60;;
8094;SDS011;4090;49.270;8.696;2022-09-02T04:00:09;3.55;;;3.00;;
8094;SDS011;4090;49.270;8.696;2022-09-02T04:02:55;4.75;;;3.00;;
8094;SDS011;4090;49.270;8.696;2022-09-02T04:05:38;4.28;;;2.90;;
8094;SDS011;4090;49.270;8.696;2022-09-02T04:08:21;5.80;;;3.10;;
8094;SDS011;4090;49.270;8.696;2022-09-02T04:11:06;3.88;;;3.00;;
8094;SDS011;4090;49.270;8.696;2022-09-02T04:13:49;4.07;;;3.05;;
8094;SDS011;4090;49.270;8.696;2022-09-02T04:16:39;3.72;;;2.90;;
8094;SDS011;4090;49.270;8.696;2022-09-02T04:19:22;3.15;;;2.80;;
8094;SDS011;4090;49.270;8.696;2022-09-02T04:22:05;3.40;;;2.88;;
8094;SDS011;4090;49.270;8.696;2022-09-02T04:24:49;2.70;;;2.50;;
8094;SDS011;4090;49.270;8.696;2022-09-02T04:27:31;3.25;;;2.80;;
8094;SDS011;4090;49.270;8.696;2022-09-02T04:30:12;4.35;;;3.30;;
8094;SDS011;4090;49.270;8.696;2022-09-02T04:32:56;2.83;;;2.53;;
8094;SDS011;4090;49.270;8.696;2022-09-02T04:35:39;3.05;;;2.70;;
8094;SDS011;4090;49.270;8.696;2022-09-02T04:38:23;3.17;;;2.88;;
8094;SDS011;4090;49.270;8.696;2022-09-02T04:41:06;3.00;;;2.70;;
8094;SDS011;4090;49.270;8.696;2022-09-02T04:43:49;3.30;;;2.78;;
8094;SDS011;4090;49.270;8.696;2022-09-02T04:46:32;3.42;;;3.13;;
8094;SDS011;4090;49.270;8.696;2022-09-02T04:49:14;3.00;;;2.58;;
8094;SDS011;4090;49.270;8.696;2022-09-02T04:51:58;3.78;;;3.05;;
8094;SDS011;4090;49.270;8.696;2022-09-02T04:54:43;3.53;;;2.90;;
8094;SDS011;4090;49.270;8.696;2022-09-02T04:57:25;4.05;;;2.80;;
8094;SDS011;4090;49.270;8.696;2022-09-02T05:00:08;3.38;;;2.78;;
8094;SDS011;4090;49.270;8.696;2022-09-02T05:02:52;3.42;;;3.13;;
8094;SDS011;4090;49.270;8.696;2022-09-02T05:05:36;3.05;;;2.60;;
8094;SDS011;4090;49.270;8.696;2022-09-02T05:08:19;4.15;;;3.10;;
8094;SDS011;4090;49.270;8.696;2022-09-02T05:11:06;4.78;;;2.90;;
8094;SDS011;4090;49.270;8.696;2022-09-02T05:13:49;3.63;;;2.90;;
8094;SDS011;4090;49.270;8.696;2022-09-02T05:16:34;2.90;;;2.53;;
8094;SDS011;4090;49.270;8.696;2022-09-02T05:19:21;4.93;;;3.20;;
8094;SDS011;4090;49.270;8.696;2022-09-02T05:22:04;4.85;;;3.17;;
8094;SDS011;4090;49.270;8.696;2022-09-02T05:24:50;5.78;;;2.80;;
8094;SDS011;4090;49.270;8.696;2022-09-02T05:27:34;3.00;;;2.80;;
8094;SDS011;4090;49.270;8.696;2022-09-02T05:30:16;4.47;;;3.17;;
8094;SDS011;4090;49.270;8.696;2022-09-02T05:32:58;3.20;;;2.90;;
8094;SDS011;4090;49.270;8.696;2022-09-02T05:35:40;6.55;;;3.00;;
8094;SDS011;4090;49.270;8.696;2022-09-02T05:38:24;3.45;;;3.10;;
8094;SDS011;4090;49.270;8.696;2022-09-02T05:41:07;3.80;;;2.88;;
8094;SDS011;4090;49.270;8.696;2022-09-02T05:43:54;3.08;;;2.60;;
8094;SDS011;4090;49.270;8.696;2022-09-02T05:46:37;4.15;;;2.90;;
8094;SDS011;4090;49.270;8.696;2022-09-02T05:49:19;4.90;;;2.83;;
8094;SDS011;4090;49.270;8.696;2022-09-02T05:52:11;3.30;;;2.92;;
8094;SDS011;4090;49.270;8.696;2022-09-02T05:54:59;4.60;;;2.72;;
8094;SDS011;4090;49.270;8.696;2022-09-02T05:57:44;3.35;;;3.05;;
8094;SDS011;4090;49.270;8.696;2022-09-02T06:00:28;3.67;;;3.10;;
8094;SDS011;4090;49.270;8.696;2022-09-02T06:03:13;3.72;;;3.20;;
8094;SDS011;4090;49.270;8.696;2022-09-02T06:05:58;3.20;;;2.80;;
8094;SDS011;4090;49.270;8.696;2022-09-02T06:08:40;3.08;;;2.50;;
8094;SDS011;4090;49.270;8.696;2022-09-02T06:11:23;4.38;;;2.92;;
8094;SDS011;4090;49.270;8.696;2022-09-02T06:14:05;3.05;;;2.75;;
8094;SDS011;4090;49.270;8.696;2022-09-02T06:16:52;3.65;;;3.22;;
8094;SDS011;4090;49.270;8.696;2022-09-02T06:19:41;5.03;;;2.72;;
8094;SDS011;4090;49.270;8.696;2022-09-02T06:22:25;6.05;;;2.92;;
8094;SDS011;4090;49.270;8.696;2022-09-02T06:25:08;6.03;;;2.67;;
8094;SDS011;4090;49.270;8.696;2022-09-02T06:27:51;3.88;;;2.90;;
8094;SDS011;4090;49.270;8.696;2022-09-02T06:30:33;3.08;;;2.78;;
8094;SDS011;4090;49.270;8.696;2022-09-02T06:33:17;3.15;;;2.85;;
8094;SDS011;4090;49.270;8.696;2022-09-02T06:36:01;3.08;;;2.78;;
8094;SDS011;4090;49.270;8.696;2022-09-02T06:38:48;4.30;;;2.85;;
8094;SDS011;4090;49.270;8.696;2022-09-02T06:41:32;3.38;;;2.58;;
8094;SDS011;4090;49.270;8.696;2022-09-02T06:44:18;2.97;;;2.67;;
8094;SDS011;4090;49.270;8.696;2022-09-02T06:47:02;3.20;;;2.90;;
8094;SDS011;4090;49.270;8.696;2022-09-02T06:49:46;3.53;;;2.60;;
8094;SDS011;4090;49.270;8.696;2022-09-02T06:52:28;6.03;;;2.60;;
8094;SDS011;4090;49.270;8.696;2022-09-02T06:55:10;4.18;;;2.80;;
8094;SDS011;4090;49.270;8.696;2022-09-02T06:57:53;4.13;;;2.75;;
8094;SDS011;4090;49.270;8.696;2022-09-02T07:00:35;4.93;;;2.70;;
8094;SDS011;4090;49.270;8.696;2022-09-02T07:03:18;4.03;;;2.38;;
8094;SDS011;4090;49.270;8.696;2022-09-02T07:06:24;4.20;;;2.90;;
8094;SDS011;4090;49.270;8.696;2022-09-02T07:09:07;5.00;;;2.65;;
8094;SDS011;4090;49.270;8.696;2022-09-02T07:11:51;4.70;;;2.35;;
8094;SDS011;4090;49.270;8.696;2022-09-02T07:14:35;2.72;;;2.53;;
8094;SDS011;4090;49.270;8.696;2022-09-02T07:17:17;3.40;;;2.28;;
8094;SDS011;4090;49.270;8.696;2022-09-02T07:20:06;3.25;;;2.38;;
8094;SDS011;4090;49.270;8.696;2022-09-02T07:23:04;2.80;;;2.50;;
8094;SDS011;4090;49.270;8.696;2022-09-02T07:25:47;4.22;;;2.42;;
8094;SDS011;4090;49.270;8.696;2022-09-02T07:28:30;3.53;;;2.20;;
8094;SDS011;4090;49.270;8.696;2022-09-02T07:31:14;4.30;;;2.45;;
8094;SDS011;4090;49.270;8.696;2022-09-02T07:33:57;4.32;;;2.25;;
8094;SDS011;4090;49.270;8.696;2022-09-02T07:36:40;2.63;;;2.40;;
8094;SDS011;4090;49.270;8.696;2022-09-02T07:39:26;3.75;;;2.40;;
8094;SDS011;4090;49.270;8.696;2022-09-02T07:42:08;2.50;;;2.30;;
8094;SDS011;4090;49.270;8.696;2022-09-02T07:44:50;3.08;;;2.35;;
8094;SDS011;4090;49.270;8.696;2022-09-02T07:47:33;2.70;;;2.15;;
8094;SDS011;4090;49.270;8.696;2022-09-02T07:50:16;2.80;;;1.90;;
8094;SDS011;4090;49.270;8.696;2022-09-02T07:53:00;3.40;;;2.22;;
8094;SDS011;4090;49.270;8.696;2022-09-02T07:55:48;2.53;;;2.10;;
8094;SDS011;4090;49.270;8.696;2022-09-02T07:58:30;4.25;;;2.28;;
8094;SDS011;4090;49.270;8.696;2022-09-02T08:01:12;4.53;;;2.10;;
8094;SDS011;4090;49.270;8.696;2022-09-02T08:03:55;3.33;;;2.20;;
8094;SDS011;4090;49.270;8.696;2022-09-02T08:06:41;2.72;;;2.00;;
8094;SDS011;4090;49.270;8.696;2022-09-02T08:09:23;2.25;;;2.03;;
8094;SDS011;4090;49.270;8.696;2022-09-02T08:12:06;2.45;;;1.92;;
8094;SDS011;4090;49.270;8.696;2022-09-02T08:14:48;2.67;;;2.08;;
8094;SDS011;4090;49.270;8.696;2022-09-02T08:17:30;2.78;;;2.40;;
8094;SDS011;4090;49.270;8.696;2022-09-02T08:20:12;2.83;;;2.00;;
8094;SDS011;4090;49.270;8.696;2022-09-02T08:22:55;2.88;;;1.98;;
8094;SDS011;4090;49.270;8.696;2022-09-02T08:25:37;2.20;;;2.00;;
8094;SDS011;4090;49.270;8.696;2022-09-02T08:28:21;2.17;;;1.80;;
8094;SDS011;4090;49.270;8.696;2022-09-02T08:31:03;4.82;;;1.92;;
8094;SDS011;4090;49.270;8.696;2022-09-02T08:33:46;3.05;;;1.67;;
8094;SDS011;4090;49.270;8.696;2022-09-02T08:36:28;3.80;;;2.13;;
8094;SDS011;4090;49.270;8.696;2022-09-02T08:39:10;4.10;;;1.90;;
8094;SDS011;4090;49.270;8.696;2022-09-02T08:41:53;3.15;;;1.98;;
8094;SDS011;4090;49.270;8.696;2022-09-02T08:44:44;3.83;;;2.00;;
8094;SDS011;4090;49.270;8.696;2022-09-02T08:47:26;2.58;;;2.05;;
8094;SDS011;4090;49.270;8.696;2022-09-02T08:50:12;2.28;;;1.88;;
8094;SDS011;4090;49.270;8.696;2022-09-02T08:52:57;2.60;;;1.95;;
8094;SDS011;4090;49.270;8.696;2022-09-02T08:55:46;3.75;;;2.00;;
8094;SDS011;4090;49.270;8.696;2022-09-02T08:58:35;1.80;;;1.70;;
8094;SDS011;4090;49.270;8.696;2022-09-02T09:01:23;2.10;;;1.73;;
8094;SDS011;4090;49.270;8.696;2022-09-02T09:04:11;2.70;;;1.83;;
8094;SDS011;4090;49.270;8.696;2022-09-02T09:07:02;1.70;;;1.60;;
8094;SDS011;4090;49.270;8.696;2022-09-02T09:10:00;6.80;;;1.90;;
8094;SDS011;4090;49.270;8.696;2022-09-02T09:12:53;3.58;;;1.60;;
8094;SDS011;4090;49.270;8.696;2022-09-02T09:15:45;5.78;;;1.83;;
8094;SDS011;4090;49.270;8.696;2022-09-02T09:18:35;3.00;;;1.50;;
8094;SDS011;4090;49.270;8.696;2022-09-02T09:21:19;3.28;;;1.92;;
8094;SDS011;4090;49.270;8.696;2022-09-02T09:24:02;3.30;;;1.63;;
8094;SDS011;4090;49.270;8.696;2022-09-02T09:26:49;2.28;;;1.83;;
8094;SDS011;4090;49.270;8.696;2022-09-02T09:29:33;1.65;;;1.48;;
8094;SDS011;4090;49.270;8.696;2022-09-02T09:32:19;3.05;;;1.80;;
8094;SDS011;4090;49.270;8.696;2022-09-02T09:35:07;2.05;;;1.45;;
8094;SDS011;4090;49.270;8.696;2022-09-02T09:37:51;1.45;;;1.35;;
8094;SDS011;4090;49.270;8.696;2022-09-02T09:40:38;2.50;;;1.45;;
8094;SDS011;4090;49.270;8.696;2022-09-02T09:43:20;2.83;;;1.60;;
8094;SDS011;4090;49.270;8.696;2022-09-02T09:46:20;1.85;;;1.40;;
8094;SDS011;4090;49.270;8.696;2022-09-02T09:49:06;2.65;;;1.60;;
8094;SDS011;4090;49.270;8.696;2022-09-02T09:51:53;1.60;;;1.50;;
8094;SDS011;4090;49.270;8.696;2022-09-02T09:54:36;3.60;;;1.67;;
8094;SDS011;4090;49.270;8.696;2022-09-02T09:57:18;3.05;;;1.70;;
8094;SDS011;4090;49.270;8.696;2022-09-02T10:00:05;2.15;;;1.30;;
8094;SDS011;4090;49.270;8.696;2022-09-02T10:02:53;2.38;;;1.40;;
8094;SDS011;4090;49.270;8.696;2022-09-02T10:05:37;2.15;;;1.60;;
8094;SDS011;4090;49.270;8.696;2022-09-02T10:08:22;1.83;;;1.42;;
8094;SDS011;4090;49.270;8.696;2022-09-02T10:11:05;3.67;;;1.60;;
8094;SDS011;4090;49.270;8.696;2022-09-02T10:14:02;2.13;;;1.50;;
8094;SDS011;4090;49.270;8.696;2022-09-02T10:16:47;2.13;;;1.50;;
8094;SDS011;4090;49.270;8.696;2022-09-02T10:19:41;1.30;;;1.20;;
8094;SDS011;4090;49.270;8.696;2022-09-02T10:22:33;2.15;;;1.52;;
8094;SDS011;4090;49.270;8.696;2022-09-02T10:25:42;3.35;;;1.50;;
8094;SDS011;4090;49.270;8.696;2022-09-02T10:28:41;3.08;;;1.40;;
8094;SDS011;4090;49.270;8.696;2022-09-02T10:31:42;1.58;;;1.48;;
8094;SDS011;4090;49.270;8.696;2022-09-02T10:34:32;1.60;;;1.50;;
8094;SDS011;4090;49.270;8.696;2022-09-02T10:37:23;1.77;;;1.20;;
8094;SDS011;4090;49.270;8.696;2022-09-02T10:40:08;2.70;;;1.63;;
8094;SDS011;4090;49.270;8.696;2022-09-02T10:42:58;3.42;;;1.45;;
8094;SDS011;4090;49.270;8.696;2022-09-02T10:45:45;4.38;;;1.50;;
8094;SDS011;4090;49.270;8.696;2022-09-02T10:48:33;7.03;;;1.30;;
8094;SDS011;4090;49.270;8.696;2022-09-02T10:51:25;1.73;;;1.38;;
8094;SDS011;4090;49.270;8.696;2022-09-02T10:54:21;1.83;;;1.30;;
8094;SDS011;4090;49.270;8.696;2022-09-02T10:57:19;1.98;;;1.33;;
8094;SDS011;4090;49.270;8.696;2022-09-02T11:00:10;3.33;;;1.48;;
8094;SDS011;4090;49.270;8.696;2022-09-02T11:02:55;2.08;;;1.25;;
8094;SDS011;4090;49.270;8.696;2022-09-02T11:05:48;1.55;;;1.15;;
8094;SDS011;4090;49.270;8.696;2022-09-02T11:08:33;1.98;;;1.30;;
8094;SDS011;4090;49.270;8.696;2022-09-02T11:11:20;1.98;;;1.50;;
8094;SDS011;4090;49.270;8.696;2022-09-02T11:14:12;2.25;;;1.38;;
8094;SDS011;4090;49.270;8.696;2022-09-02T11:17:04;4.05;;;1.30;;
8094;SDS011;4090;49.270;8.696;2022-09-02T11:19:52;1.40;;;1.30;;
8094;SDS011;4090;49.270;8.696;2022-09-02T11:22:43;3.67;;;1.45;;
8094;SDS011;4090;49.270;8.696;2022-09-02T11:25:36;4.05;;;1.20;;
8094;SDS011;4090;49.270;8.696;2022-09-02T11:28:25;2.55;;;1.30;;
8094;SDS011;4090;49.270;8.696;2022-09-02T11:31:14;1.50;;;1.40;;
8094;SDS011;4090;49.270;8.696;2022-09-02T11:34:02;1.67;;;1.25;;
8094;SDS011;4090;49.270;8.696;2022-09-02T11:36:52;1.52;;;1.30;;
8094;SDS011;4090;49.270;8.696;2022-09-02T11:39:34;3.33;;;1.38;;
8094;SDS011;4090;49.270;8.696;2022-09-02T11:42:25;1.20;;;1.10;;
8094;SDS011;4090;49.270;8.696;2022-09-02T11:48:52;1.67;;;1.00;;
8094;SDS011;4090;49.270;8.696;2022-09-02T11:55:06;2.00;;;1.40;;
8094;SDS011;4090;49.270;8.696;2022-09-02T11:57:50;1.63;;;1.42;;
8094;SDS011;4090;49.270;8.696;2022-09-02T12:00:34;1.88;;;1.20;;
8094;SDS011;4090;49.270;8.696;2022-09-02T12:03:37;1.90;;;1.13;;
8094;SDS011;4090;49.270;8.696;2022-09-02T12:06:25;1.83;;;1.30;;
8094;SDS011;4090;49.270;8.696;2022-09-02T12:09:08;1.60;;;1.17;;
8094;SDS011;4090;49.270;8.696;2022-09-02T12:11:51;2.40;;;1.27;;
8094;SDS011;4090;49.270;8.696;2022-09-02T12:14:59;2.30;;;1.08;;
8094;SDS011;4090;49.270;8.696;2022-09-02T12:21:02;0.95;;;0.95;;
8094;SDS011;4090;49.270;8.696;2022-09-02T12:27:09;1.35;;;1.25;;
8094;SDS011;4090;49.270;8.696;2022-09-02T12:30:02;2.85;;;1.10;;
8094;SDS011;4090;49.270;8.696;2022-09-02T12:35:53;1.20;;;1.10;;
8094;SDS011;4090;49.270;8.696;2022-09-02T12:38:37;1.73;;;1.20;;
8094;SDS011;4090;49.270;8.696;2022-09-02T12:41:25;1.30;;;1.20;;
8094;SDS011;4090;49.270;8.696;2022-09-02T12:44:19;2.35;;;1.33;;
8094;SDS011;4090;49.270;8.696;2022-09-02T12:47:07;2.05;;;1.20;;
8094;SDS011;4090;49.270;8.696;2022-09-02T12:49:58;1.23;;;0.90;;
8094;SDS011;4090;49.270;8.696;2022-09-02T12:52:46;1.58;;;1.15;;
8094;SDS011;4090;49.270;8.696;2022-09-02T12:55:29;1.38;;;1.10;;
8094;SDS011;4090;49.270;8.696;2022-09-02T12:58:18;1.23;;;1.15;;
8094;SDS011;4090;49.270;8.696;2022-09-02T13:01:05;1.15;;;1.00;;
8094;SDS011;4090;49.270;8.696;2022-09-02T13:03:59;1.15;;;1.05;;
8094;SDS011;4090;49.270;8.696;2022-09-02T13:06:58;1.85;;;1.20;;
8094;SDS011;4090;49.270;8.696;2022-09-02T13:13:24;1.98;;;1.05;;
8094;SDS011;4090;49.270;8.696;2022-09-02T13:16:27;2.28;;;1.20;;
8094;SDS011;4090;49.270;8.696;2022-09-02T13:19:22;1.17;;;1.10;;
8094;SDS011;4090;49.270;8.696;2022-09-02T13:22:33;1.33;;;1.23;;
8094;SDS011;4090;49.270;8.696;2022-09-02T13:25:36;2.95;;;1.45;;
8094;SDS011;4090;49.270;8.696;2022-09-02T13:28:45;1.20;;;1.10;;
8094;SDS011;4090;49.270;8.696;2022-09-02T13:31:59;2.55;;;1.42;;
8094;SDS011;4090;49.270;8.696;2022-09-02T13:34:44;2.03;;;1.00;;
8094;SDS011;4090;49.270;8.696;2022-09-02T13:37:28;2.38;;;1.40;;
8094;SDS011;4090;49.270;8.696;2022-09-02T13:40:16;1.17;;;1.05;;
8094;SDS011;4090;49.270;8.696;2022-09-02T13:42:59;1.20;;;1.20;;
8094;SDS011;4090;49.270;8.696;2022-09-02T13:45:44;1.98;;;1.10;;
8094;SDS011;4090;49.270;8.696;2022-09-02T13:48:29;1.85;;;1.25;;
8094;SDS011;4090;49.270;8.696;2022-09-02T13:51:13;1.00;;;1.00;;
8094;SDS011;4090;49.270;8.696;2022-09-02T13:53:55;1.75;;;1.30;;
8094;SDS011;4090;49.270;8.696;2022-09-02T13:56:39;1.38;;;1.23;;
8094;SDS011;4090;49.270;8.696;2022-09-02T13:59:29;1.23;;;1.10;;
8094;SDS011;4090;49.270;8.696;2022-09-02T14:02:21;1.92;;;1.17;;
8094;SDS011;4090;49.270;8.696;2022-09-02T14:05:06;2.60;;;1.42;;
8094;SDS011;4090;49.270;8.696;2022-09-02T14:07:54;1.95;;;1.30;;
8094;SDS011;4090;49.270;8.696;2022-09-02T14:10:39;1.58;;;1.40;;
8094;SDS011;4090;49.270;8.696;2022-09-02T14:13:22;1.40;;;1.30;;
8094;SDS011;4090;49.270;8.696;2022-09-02T14:16:23;2.58;;;1.30;;
8094;SDS011;4090;49.270;8.696;2022-09-02T14:19:08;1.67;;;1.10;;
8094;SDS011;4090;49.270;8.696;2022-09-02T14:21:53;1.48;;;1.15;;
8094;SDS011;4090;49.270;8.696;2022-09-02T14:24:38;1.10;;;1.00;;
8094;SDS011;4090;49.270;8.696;2022-09-02T14:27:21;1.30;;;1.20;;
8094;SDS011;4090;49.270;8.696;2022-09-02T14:30:05;1.27;;;1.10;;
8094;SDS011;4090;49.270;8.696;2022-09-02T14:32:49;1.38;;;1.13;;
8094;SDS011;4090;49.270;8.696;2022-09-02T14:35:59;1.67;;;1.30;;
8094;SDS011;4090;49.270;8.696;2022-09-02T14:38:50;1.20;;;1.20;;
8094;SDS011;4090;49.270;8.696;2022-09-02T14:41:34;2.40;;;1.65;;
8094;SDS011;4090;49.270;8.696;2022-09-02T14:44:22;1.95;;;1.20;;
8094;SDS011;4090;49.270;8.696;2022-09-02T14:47:13;1.23;;;1.13;;
8094;SDS011;4090;49.270;8.696;2022-09-02T14:49:58;3.03;;;1.40;;
8094;SDS011;4090;49.270;8.696;2022-09-02T14:52:43;2.08;;;1.10;;
8094;SDS011;4090;49.270;8.696;2022-09-02T14:55:45;1.20;;;1.08;;
8094;SDS011;4090;49.270;8.696;2022-09-02T14:58:29;1.40;;;1.20;;
8094;SDS011;4090;49.270;8.696;2022-09-02T15:01:11;2.58;;;1.10;;
8094;SDS011;4090;49.270;8.696;2022-09-02T15:03:53;1.20;;;1.20;;
8094;SDS011;4090;49.270;8.696;2022-09-02T15:06:37;2.13;;;1.20;;
8094;SDS011;4090;49.270;8.696;2022-09-02T15:09:18;1.17;;;1.08;;
8094;SDS011;4090;49.270;8.696;2022-09-02T15:12:00;1.95;;;1.40;;
8094;SDS011;4090;49.270;8.696;2022-09-02T15:14:43;1.38;;;1.05;;
8094;SDS011;4090;49.270;8.696;2022-09-02T15:17:25;1.50;;;1.40;;
8094;SDS011;4090;49.270;8.696;2022-09-02T15:20:08;1.10;;;1.10;;
8094;SDS011;4090;49.270;8.696;2022-09-02T15:22:52;1.10;;;1.10;;
8094;SDS011;4090;49.270;8.696;2022-09-02T15:25:34;1.35;;;0.90;;
8094;SDS011;4090;49.270;8.696;2022-09-02T15:28:15;3.22;;;1.10;;
8094;SDS011;4090;49.270;8.696;2022-09-02T15:30:57;1.05;;;1.05;;
8094;SDS011;4090;49.270;8.696;2022-09-02T15:33:40;2.13;;;1.08;;
8094;SDS011;4090;49.270;8.696;2022-09-02T15:36:22;1.05;;;0.95;;
8094;SDS011;4090;49.270;8.696;2022-09-02T15:39:06;1.10;;;1.10;;
8094;SDS011;4090;49.270;8.696;2022-09-02T15:41:48;1.30;;;1.08;;
8094;SDS011;4090;49.270;8.696;2022-09-02T15:44:30;4.22;;;1.20;;
8094;SDS011;4090;49.270;8.696;2022-09-02T15:47:12;1.80;;;1.05;;
8094;SDS011;4090;49.270;8.696;2022-09-02T15:49:54;3.40;;;1.27;;
8094;SDS011;4090;49.270;8.696;2022-09-02T15:52:36;1.30;;;1.20;;
8094;SDS011;4090;49.270;8.696;2022-09-02T15:55:19;3.17;;;1.20;;
8094;SDS011;4090;49.270;8.696;2022-09-02T15:58:01;2.72;;;1.30;;
8094;SDS011;4090;49.270;8.696;2022-09-02T16:00:43;1.40;;;1.30;;
8094;SDS011;4090;49.270;8.696;2022-09-02T16:03:25;2.00;;;1.20;;
8094;SDS011;4090;49.270;8.696;2022-09-02T16:06:07;1.52;;;1.13;;
8094;SDS011;4090;49.270;8.696;2022-09-02T16:08:49;1.42;;;1.10;;
8094;SDS011;4090;49.270;8.696;2022-09-02T16:11:32;1.60;;;1.00;;
8094;SDS011;4090;49.270;8.696;2022-09-02T16:14:17;1.27;;;1.10;;
8094;SDS011;4090;49.270;8.696;2022-09-02T16:17:00;1.05;;;1.00;;
8094;SDS011;4090;49.270;8.696;2022-09-02T16:19:41;1.33;;;1.10;;
8094;SDS011;4090;49.270;8.696;2022-09-02T16:22:23;1.88;;;1.20;;
8094;SDS011;4090;49.270;8.696;2022-09-02T16:25:05;1.98;;;1.10;;
8094;SDS011;4090;49.270;8.696;2022-09-02T16:27:49;3.28;;;1.20;;
8094;SDS011;4090;49.270;8.696;2022-09-02T16:30:35;3.13;;;1.20;;
8094;SDS011;4090;49.270;8.696;2022-09-02T16:33:17;1.23;;;1.00;;
8094;SDS011;4090;49.270;8.696;2022-09-02T16:35:59;1.95;;;1.33;;
8094;SDS011;4090;49.270;8.696;2022-09-02T16:38:41;2.63;;;1.13;;
8094;SDS011;4090;49.270;8.696;2022-09-02T16:41:23;2.13;;;1.30;;
8094;SDS011;4090;49.270;8.696;2022-09-02T16:44:09;1.15;;;0.95;;
8094;SDS011;4090;49.270;8.696;2022-09-02T16:46:52;1.00;;;1.00;;
8094;SDS011;4090;49.270;8.696;2022-09-02T16:49:34;1.30;;;1.20;;
8094;SDS011;4090;49.270;8.696;2022-09-02T16:52:16;4.15;;;1.38;;
8094;SDS011;4090;49.270;8.696;2022-09-02T16:54:58;1.25;;;1.10;;
8094;SDS011;4090;49.270;8.696;2022-09-02T16:57:39;1.60;;;1.20;;
8094;SDS011;4090;49.270;8.696;2022-09-02T17:00:22;1.15;;;1.05;;
8094;SDS011;4090;49.270;8.696;2022-09-02T17:03:04;1.83;;;1.30;;
8094;SDS011;4090;49.270;8.696;2022-09-02T17:05:46;3.30;;;1.25;;
8094;SDS011;4090;49.270;8.696;2022-09-02T17:08:28;2.13;;;1.27;;
8094;SDS011;4090;49.270;8.696;2022-09-02T17:11:12;1.23;;;1.13;;
8094;SDS011;4090;49.270;8.696;2022-09-02T17:14:00;1.38;;;1.27;;
8094;SDS011;4090;49.270;8.696;2022-09-02T17:16:46;1.58;;;1.13;;
8094;SDS011;4090;49.270;8.696;2022-09-02T17:19:29;1.13;;;1.13;;
8094;SDS011;4090;49.270;8.696;2022-09-02T17:22:12;1.25;;;1.13;;
8094;SDS011;4090;49.270;8.696;2022-09-02T17:24:54;2.92;;;1.20;;
8094;SDS011;4090;49.270;8.696;2022-09-02T17:27:35;2.47;;;1.30;;